Data for 01/14/2013

Time Sea-Level Adjusted Pressure Absolute Pressure Temperature Relative Humidity Dew Point   
(mb) (inHg) (mb) (inHg) (C) (F) (%) (C) (F)
00:05 1020 30.12 849 25.07 -16.1 3 83 -18.3 -1
00:10 1020 30.12 850 25.1 -16.1 3 82 -18.5 -1.3
00:15 1020 30.12 850 25.1 -16.4 2.4 84 -18.5 -1.4
00:20 1020 30.12 850 25.1 -16.4 2.5 84 -18.5 -1.3
00:25 1020 30.12 850 25.1 -16.4 2.6 84 -18.5 -1.3
00:30 1020 30.12 850 25.1 -16.4 2.4 84 -18.5 -1.3
00:35 1021 30.15 850 25.1 -16.4 2.5 84 -18.5 -1.4
00:40 1021 30.15 850 25.1 -16.5 2.4 84 -18.6 -1.5
00:45 1021 30.15 850 25.1 -16.4 2.4 84 -18.5 -1.4
00:50 1021 30.15 850 25.1 -16.4 2.5 83 -18.7 -1.6
00:55 1021 30.15 850 25.1 -16.3 2.6 83 -18.6 -1.5
01:00 1021 30.15 850 25.1 -16.2 2.8 82 -18.7 -1.6
01:05 1021 30.15 850 25.1 -16.2 2.8 81 -18.7 -1.7
01:10 1021 30.15 850 25.1 -16.1 3 81 -18.6 -1.5
01:15 1021 30.15 850 25.1 -16 3.2 81 -18.6 -1.4
01:20 1021 30.15 850 25.1 -16 3.2 80 -18.6 -1.5
01:25 1021 30.15 850 25.1 -16 3.1 80 -18.7 -1.6
01:30 1021 30.15 850 25.1 -16.1 3 81 -18.7 -1.6
01:35 1021 30.15 850 25.1 -16.1 3 81 -18.7 -1.7
01:40 1021 30.15 850 25.1 -16.1 3 81 -18.7 -1.7
01:45 1021 30.15 850 25.1 -16.2 2.9 81 -18.8 -1.9
01:50 1021 30.15 850 25.1 -16.3 2.6 80 -19 -2.2
01:55 1021 30.15 850 25.1 -16.5 2.3 81 -19 -2.2
02:00 1021 30.15 850 25.1 -16.6 2.2 82 -19 -2.2
02:05 1021 30.15 850 25.1 -16.5 2.2 83 -18.8 -1.9
02:10 1021 30.15 850 25.1 -16.6 2.2 83 -18.8 -1.8
02:15 1021 30.15 850 25.1 -16.6 2.2 84 -18.6 -1.6
02:20 1021 30.15 850 25.1 -16.5 2.2 84 -18.6 -1.5
02:25 1021 30.15 850 25.1 -16.4 2.5 84 -18.6 -1.4
02:30 1021 30.15 850 25.1 -16.3 2.6 83 -18.6 -1.5
02:35 1021 30.15 850 25.1 -16.3 2.6 82 -18.7 -1.7
02:40 1021 30.15 850 25.1 -16.8 1.8 82 -19.1 -2.4
02:45 1021 30.15 850 25.1 -17.1 1.3 84 -19.1 -2.5
02:50 1021 30.15 850 25.1 -17 1.4 83 -19.2 -2.6
02:55 1021 30.15 850 25.1 -17.2 1 84 -19.4 -2.9
03:00 1021 30.15 850 25.1 -17.5 0.5 85 -19.4 -3
03:05 1021 30.15 850 25.1 -17.5 0.6 85 -19.4 -2.8
03:10 1021 30.15 850 25.1 -17.4 0.7 85 -19.4 -2.8
03:15 1021 30.15 850 25.1 -17.5 0.5 85 -19.5 -3.1
03:20 1021 30.15 850 25.1 -17.7 0.2 84 -19.7 -3.5
03:25 1021 30.15 850 25.1 -17.9 -0.1 83 -20 -4.1
03:30 1021 30.15 850 25.1 -18.1 -0.6 85 -20.1 -4.2
03:35 1021 30.15 850 25.1 -17.9 -0.2 85 -19.8 -3.6
03:40 1021 30.15 850 25.1 -17.5 0.6 85 -19.5 -3
03:45 1021 30.15 850 25.1 -17.1 1.3 82 -19.5 -3.1
03:50 1021 30.15 850 25.1 -17.3 0.8 82 -19.7 -3.5
03:55 1021 30.15 850 25.1 -17.5 0.5 82 -19.9 -3.9
04:00 1021 30.15 850 25.1 -17.6 0.3 81 -20.1 -4.3
04:05 1021 30.15 850 25.1 -18 -0.4 79 -20.8 -5.4
04:10 1021 30.15 850 25.1 -18.6 -1.5 81 -21.2 -6.1
04:15 1021 30.15 850 25.1 -18.9 -2 83 -21.1 -6
04:20 1021 30.15 850 25.1 -18.5 -1.3 85 -20.4 -4.6
04:25 1021 30.15 850 25.1 -17.7 0.1 82 -20.1 -4.1
04:30 1021 30.15 850 25.1 -17.2 1 80 -19.9 -3.8
04:35 1021 30.15 850 25.1 -17.3 0.9 75 -20.7 -5.2
04:40 1021 30.15 850 25.1 -18.1 -0.6 79 -21 -5.8
04:45 1021 30.15 850 25.1 -18.4 -1.1 82 -20.7 -5.3
04:50 1021 30.15 850 25.1 -18.4 -1 83 -20.6 -5
04:55 1021 30.15 850 25.1 -18.1 -0.6 82 -20.5 -4.8
05:00 1021 30.15 850 25.1 -18 -0.4 81 -20.4 -4.8
05:05 1021 30.15 850 25.1 -17.6 0.3 80 -20.3 -4.5
05:10 1021 30.15 850 25.1 -17.3 0.8 79 -20.2 -4.4
05:15 1021 30.15 850 25.1 -17.2 1 79 -20.1 -4.2
05:20 1021 30.15 850 25.1 -17.4 0.7 78 -20.3 -4.6
05:25 1021 30.15 850 25.1 -17.8 -0 84 -19.9 -3.8
05:30 1021 30.15 850 25.1 -17.4 0.7 83 -19.7 -3.5
05:35 1021 30.15 850 25.1 -17 1.4 76 -20.2 -4.4
05:40 1021 30.15 850 25.1 -17.5 0.5 78 -20.5 -5
05:45 1021 30.15 850 25.1 -17.3 0.8 76 -20.6 -5
05:50 1021 30.15 850 25.1 -17.1 1.1 76 -20.5 -4.9
05:55 1021 30.15 850 25.1 -17 1.4 75 -20.5 -4.9
06:00 1021 30.15 850 25.1 -17.2 1 75 -20.7 -5.2
06:05 1021 30.15 850 25.1 -17.3 0.9 75 -20.7 -5.3
06:10 1021 30.15 850 25.1 -17.5 0.6 76 -20.8 -5.4
06:15 1021 30.15 850 25.1 -17.6 0.3 75 -21 -5.7
06:20 1021 30.15 850 25.1 -17.4 0.7 75 -20.8 -5.5
06:25 1021 30.15 850 25.1 -17.4 0.7 75 -20.9 -5.6
06:30 1021 30.15 850 25.1 -17.5 0.5 76 -20.8 -5.4
06:35 1021 30.15 850 25.1 -17.8 -0 76 -21.1 -5.9
06:40 1021 30.15 850 25.1 -18.2 -0.8 76 -21.4 -6.6
06:45 1021 30.15 850 25.1 -18.7 -1.7 78 -21.6 -6.9
06:50 1020 30.12 850 25.1 -18.7 -1.6 79 -21.5 -6.7
06:55 1020 30.12 850 25.1 -18.6 -1.5 81 -21.1 -6
07:00 1020 30.12 850 25.1 -18.3 -1 79 -21.1 -6
07:05 1020 30.12 850 25.1 -18 -0.4 79 -20.8 -5.4
07:10 1020 30.12 850 25.1 -17.9 -0.1 79 -20.6 -5.1
07:15 1020 30.12 850 25.1 -17.9 -0.2 80 -20.6 -5
07:20 1020 30.12 850 25.1 -18.1 -0.5 80 -20.7 -5.3
07:25 1020 30.12 850 25.1 -18.2 -0.8 81 -20.7 -5.3
07:30 1020 30.12 850 25.1 -18.4 -1.1 84 -20.5 -4.9
07:35 1020 30.12 850 25.1 -18.6 -1.5 82 -21 -5.8
07:40 1020 30.12 850 25.1 -18.5 -1.3 83 -20.7 -5.3
07:45 1020 30.12 850 25.1 -18.4 -1.1 83 -20.6 -5.1
07:50 1020 30.12 850 25.1 -18.3 -1 82 -20.7 -5.3
07:55 1021 30.15 850 25.1 -18.4 -1.1 82 -20.7 -5.3
08:00 1021 30.15 850 25.1 -18.4 -1.1 82 -20.7 -5.3
08:05 1021 30.15 850 25.1 -18.1 -0.6 77 -21.3 -6.3
08:10 1021 30.15 850 25.1 -18.1 -0.5 73 -21.8 -7.3
08:15 1021 30.15 850 25.1 -18.5 -1.2 75 -21.9 -7.3
08:20 1021 30.15 850 25.1 -18.8 -1.9 77 -22 -7.5
08:25 1021 30.15 850 25.1 -19.2 -2.5 77 -22.2 -8
08:30 1021 30.15 850 25.1 -19.2 -2.6 75 -22.6 -8.7
08:35 1021 30.15 850 25.1 -19 -2.1 75 -22.4 -8.3
08:40 1021 30.15 850 25.1 -18.6 -1.4 74 -22.1 -7.8
08:45 1021 30.15 850 25.1 -18.5 -1.3 75 -21.9 -7.4
08:50 1020 30.12 850 25.1 -18.4 -1.2 77 -21.5 -6.7
08:55 1020 30.12 850 25.1 -18.1 -0.6 75 -21.5 -6.6
09:00 1020 30.12 849 25.07 -18.5 -1.4 76 -21.8 -7.2
09:05 1020 30.12 849 25.07 -18.6 -1.4 74 -22.1 -7.8
09:10 1020 30.12 850 25.1 -18.4 -1.1 73 -22.1 -7.9
09:15 1020 30.12 850 25.1 -18.6 -1.4 73 -22.3 -8.2
09:20 1020 30.12 850 25.1 -18.6 -1.6 76 -21.8 -7.3
09:25 1020 30.12 850 25.1 -18.4 -1 76 -21.7 -7
09:30 1020 30.12 849 25.07 -18.3 -0.9 76 -21.5 -6.8
09:35 1020 30.12 849 25.07 -18.1 -0.7 76 -21.4 -6.5
09:40 1020 30.12 849 25.07 -17.6 0.4 74 -21.1 -6
09:45 1020 30.12 849 25.07 -17.3 0.9 74 -20.9 -5.6
09:50 1020 30.12 849 25.07 -16.9 1.5 73 -20.6 -5.2
09:55 1020 30.12 849 25.07 -16.4 2.4 72 -20.4 -4.8
10:00 1020 30.12 849 25.07 -16.3 2.6 72 -20.3 -4.6
10:05 1020 30.12 849 25.07 -16.4 2.5 72 -20.3 -4.5
10:10 1020 30.12 849 25.07 -16.3 2.6 72 -20.2 -4.4
10:15 1020 30.12 849 25.07 -16.4 2.5 73 -20.1 -4.2
10:20 1020 30.12 850 25.1 -16.1 3.1 72 -20 -4.1
10:25 1020 30.12 850 25.1 -15.8 3.6 70 -20.1 -4.1
10:30 1020 30.12 849 25.07 -16 3.2 73 -19.8 -3.7
10:35 1020 30.12 849 25.07 -15.8 3.5 71 -19.9 -3.8
10:40 1020 30.12 849 25.07 -15.7 3.7 72 -19.7 -3.5
10:45 1020 30.12 849 25.07 -15.7 3.8 72 -19.7 -3.5
10:50 1020 30.12 849 25.07 -15.5 4.1 71 -19.6 -3.3
10:55 1020 30.12 849 25.07 -15.3 4.5 71 -19.5 -3
11:00 1020 30.12 849 25.07 -15 4.9 70 -19.4 -2.9
11:05 1020 30.12 849 25.07 -14.8 5.4 69 -19.3 -2.7
11:10 1020 30.12 849 25.07 -14.6 5.7 67 -19.4 -2.9
11:15 1020 30.12 849 25.07 -14.6 5.7 65 -19.8 -3.7
11:20 1020 30.12 849 25.07 -14.9 5.2 69 -19.5 -3
11:25 1020 30.12 849 25.07 -14.7 5.5 67 -19.6 -3.4
11:30 1020 30.12 849 25.07 -14.6 5.7 66 -19.7 -3.4
11:35 1020 30.12 849 25.07 -14.5 6 61 -20.5 -4.8
11:40 1020 30.12 849 25.07 -14.4 6 58 -21 -5.7
11:45 1020 30.12 849 25.07 -14.6 5.7 60 -20.8 -5.5
11:50 1020 30.12 850 25.1 -14.5 6 61 -20.5 -4.9
11:55 1020 30.12 850 25.1 -14.3 6.3 62 -20 -4
12:00 1020 30.12 850 25.1 -14.2 6.4 63 -19.9 -3.8
12:05 1020 30.12 850 25.1 -14.1 6.6 63 -19.7 -3.5
12:10 1020 30.12 850 25.1 -14.2 6.4 64 -19.7 -3.5
12:15 1020 30.12 849 25.07 -14.4 6.2 65 -19.6 -3.3
12:20 1020 30.12 849 25.07 -14.3 6.3 66 -19.4 -2.9
12:25 1020 30.12 849 25.07 -14.3 6.2 67 -19.2 -2.5
12:30 1020 30.12 849 25.07 -14.4 6.1 67 -19.2 -2.6
12:35 1020 30.12 849 25.07 -14.6 5.8 67 -19.5 -3
12:40 1020 30.12 849 25.07 -14.4 6.1 66 -19.5 -3
12:45 1020 30.12 849 25.07 -14.1 6.5 65 -19.4 -3
12:50 1020 30.12 849 25.07 -14.1 6.6 66 -19.2 -2.5
12:55 1019 30.09 849 25.07 -14.1 6.6 63 -19.6 -3.3
13:00 1019 30.09 848 25.04 -13.8 7.2 61 -19.7 -3.4
13:05 1019 30.09 848 25.04 -14.3 6.3 64 -19.7 -3.4
13:10 1019 30.09 848 25.04 -14.3 6.3 62 -20.1 -4.2
13:15 1019 30.09 848 25.04 -14.4 6.1 62 -20.1 -4.3
13:20 1019 30.09 848 25.04 -14.1 6.7 60 -20.3 -4.5
13:25 1019 30.09 848 25.04 -14.3 6.4 63 -19.9 -3.8
13:30 1019 30.09 848 25.04 -14.6 5.7 63 -20.2 -4.4
13:35 1019 30.09 848 25.04 -15.2 4.6 66 -20.3 -4.5
13:40 1019 30.09 848 25.04 -15 5 63 -20.7 -5.2
13:45 1019 30.09 848 25.04 -15.3 4.5 65 -20.5 -4.8
13:50 1019 30.09 848 25.04 -14.9 5.1 65 -20.2 -4.3
13:55 1019 30.09 848 25.04 -14.5 5.9 64 -19.9 -3.7
14:00 1018 30.06 848 25.04 -13.9 7.1 62 -19.7 -3.5
14:05 1018 30.06 848 25.04 -14.4 6.1 63 -19.9 -3.8
14:10 1018 30.06 848 25.04 -15 5 67 -19.9 -3.8
14:15 1018 30.06 848 25.04 -14.3 6.3 66 -19.4 -2.9
14:20 1018 30.06 848 25.04 -13.8 7.2 65 -19 -2.3
14:25 1018 30.06 847 25.01 -13.4 7.8 63 -19.1 -2.4
14:30 1018 30.06 847 25.01 -14 6.8 68 -18.8 -1.8
14:35 1018 30.06 847 25.01 -13.7 7.3 66 -18.8 -1.8
14:40 1018 30.06 847 25.01 -13.4 8 65 -18.7 -1.6
14:45 1018 30.06 847 25.01 -13.3 8 65 -18.5 -1.3
14:50 1018 30.06 847 25.01 -13.1 8.4 65 -18.3 -1
14:55 1018 30.06 847 25.01 -12.9 8.8 65 -18.2 -0.7
15:00 1018 30.06 847 25.01 -12.7 9.2 65 -18 -0.3
15:05 1018 30.06 847 25.01 -12.7 9.2 66 -17.8 -0.1
15:10 1018 30.06 847 25.01 -12.8 8.9 67 -17.8 -0.1
15:15 1018 30.06 848 25.04 -12.7 9.1 66 -17.8 0
15:20 1018 30.06 848 25.04 -13 8.5 68 -17.7 0.1
15:25 1019 30.09 848 25.04 -13.3 8.2 69 -17.8 -0
15:15 1018 30.06 848 25.04 -12.7 9.1 66 -17.8 0
15:20 1018 30.06 848 25.04 -13 8.5 68 -17.7 0.1
15:25 1019 30.09 848 25.04 -13.3 8.2 69 -17.8 -0
15:30 1019 30.09 848 25.04 -13.3 8.1 69 -17.7 0.1
15:35 1019 30.09 848 25.04 -13.4 7.9 71 -17.6 0.3
15:40 1019 30.09 848 25.04 -13.5 7.6 71 -17.7 0.1
15:45 1019 30.09 848 25.04 -13.6 7.6 72 -17.6 0.4
15:50 1019 30.09 848 25.04 -13.8 7.2 72 -17.7 0.1
15:55 1019 30.09 848 25.04 -13.8 7.2 74 -17.6 0.4
16:00 1019 30.09 848 25.04 -14 6.8 75 -17.5 0.5
16:05 1019 30.09 848 25.04 -14.2 6.5 77 -17.4 0.7
16:10 1019 30.09 848 25.04 -14.1 6.7 78 -17.1 1.2
16:15 1019 30.09 848 25.04 -13.8 7.1 77 -17 1.5
16:20 1019 30.09 848 25.04 -13.4 7.8 77 -16.6 2.1
16:25 1019 30.09 848 25.04 -13.1 8.4 78 -16.3 2.7
16:30 1019 30.09 848 25.04 -12.9 8.9 77 -16.1 3
16:35 1019 30.09 848 25.04 -12.7 9.1 76 -16.1 3
16:40 1019 30.09 848 25.04 -12.7 9.2 76 -16 3.2
16:45 1019 30.09 848 25.04 -12.7 9.1 77 -16 3.3
16:50 1019 30.09 848 25.04 -12.7 9.2 76 -16.1 3
16:55 1019 30.09 848 25.04 -12.7 9.1 78 -15.9 3.4
17:00 1019 30.09 848 25.04 -12.6 9.3 77 -15.8 3.6
17:05 1019 30.09 848 25.04 -12.5 9.5 76 -15.9 3.4
17:10 1019 30.09 848 25.04 -12.4 9.7 77 -15.7 3.7
17:15 1019 30.09 848 25.04 -12.4 9.6 77 -15.7 3.7
17:20 1019 30.09 848 25.04 -12.4 9.7 76 -15.7 3.7
17:25 1019 30.09 848 25.04 -12.4 9.7 77 -15.6 3.9
17:30 1019 30.09 848 25.04 -12.3 9.8 77 -15.6 4
17:35 1019 30.09 848 25.04 -12.3 9.9 77 -15.5 4
17:40 1019 30.09 848 25.04 -12.3 9.8 77 -15.6 3.9
17:45 1019 30.09 848 25.04 -12.5 9.6 76 -15.8 3.5
17:50 1019 30.09 848 25.04 -12.6 9.3 77 -15.8 3.6
17:55 1019 30.09 848 25.04 -12.7 9.1 78 -15.8 3.6
18:00 1019 30.09 848 25.04 -12.8 8.9 79 -15.7 3.7
18:05 1019 30.09 848 25.04 -12.8 8.9 80 -15.6 3.9
18:10 1019 30.09 848 25.04 -12.8 8.9 80 -15.6 3.8
18:15 1019 30.09 848 25.04 -12.9 8.7 80 -15.7 3.7
18:20 1019 30.09 848 25.04 -12.8 9 79 -15.7 3.8
18:25 1019 30.09 848 25.04 -12.6 9.3 80 -15.4 4.3
18:30 1019 30.09 848 25.04 -12.4 9.6 80 -15.2 4.6
18:35 1019 30.09 848 25.04 -12.3 9.9 79 -15.2 4.7
18:40 1019 30.09 848 25.04 -12.3 9.9 80 -15.1 4.8
18:45 1019 30.09 848 25.04 -12.1 10.2 80 -14.9 5.2
18:50 1019 30.09 848 25.04 -11.9 10.6 78 -14.9 5.1
18:55 1019 30.09 848 25.04 -11.8 10.8 78 -14.8 5.3
19:00 1019 30.09 848 25.04 -11.7 10.9 79 -14.7 5.5
19:05 1019 30.09 848 25.04 -11.7 11 79 -14.6 5.7
19:10 1019 30.09 848 25.04 -11.7 11 80 -14.5 5.9
19:15 1019 30.09 848 25.04 -11.6 11 81 -14.3 6.3
19:20 1019 30.09 848 25.04 -11.4 11.5 81 -14.1 6.6
19:25 1019 30.09 848 25.04 -11.1 12 80 -13.9 6.9
19:30 1019 30.09 848 25.04 -11 12.3 80 -13.8 7.1
19:35 1019 30.09 848 25.04 -10.9 12.4 80 -13.8 7.2
19:40 1019 30.09 848 25.04 -10.9 12.5 80 -13.7 7.3
19:45 1019 30.09 848 25.04 -11 12.2 79 -13.9 7
19:50 1019 30.09 848 25.04 -11.5 11.2 82 -14 6.8
19:55 1019 30.09 849 25.07 -11.5 11.2 82 -14 6.9
20:00 1019 30.09 848 25.04 -11.5 11.4 82 -13.9 6.9
20:05 1019 30.09 849 25.07 -11.3 11.6 82 -13.8 7.1
20:10 1019 30.09 849 25.07 -11.3 11.7 82 -13.8 7.2
20:15 1019 30.09 849 25.07 -11.2 11.9 82 -13.7 7.4
20:20 1019 30.09 849 25.07 -11 12.2 81 -13.6 7.5
20:25 1020 30.12 849 25.07 -11 12.1 81 -13.7 7.4
20:30 1020 30.12 849 25.07 -11.4 11.4 82 -13.9 7
20:35 1020 30.12 849 25.07 -11.6 11.2 83 -14 6.8
20:40 1020 30.12 849 25.07 -11.4 11.5 82 -13.8 7.1
20:45 1019 30.09 849 25.07 -11.1 12.1 82 -13.6 7.6
20:50 1020 30.12 849 25.07 -10.8 12.6 81 -13.5 7.7
20:55 1020 30.12 849 25.07 -11.1 12.1 83 -13.4 7.8
21:00 1020 30.12 849 25.07 -11 12.1 83 -13.4 7.8
21:05 1020 30.12 849 25.07 -11 12.1 83 -13.4 7.8
21:10 1020 30.12 849 25.07 -11.1 12.1 82 -13.5 7.7
21:15 1020 30.12 849 25.07 -11.1 12.1 82 -13.5 7.7
21:20 1020 30.12 849 25.07 -10.9 12.4 82 -13.4 7.9
21:25 1020 30.12 849 25.07 -10.9 12.4 82 -13.4 7.9
21:30 1020 30.12 849 25.07 -11 12.1 82 -13.5 7.7
21:35 1020 30.12 849 25.07 -11.1 12.1 82 -13.5 7.6
21:40 1020 30.12 849 25.07 -11.1 12.1 83 -13.5 7.7
21:45 1020 30.12 849 25.07 -10.9 12.5 82 -13.4 7.8
21:50 1020 30.12 849 25.07 -10.6 12.9 81 -13.3 8.1
21:55 1020 30.12 849 25.07 -10.5 13.2 81 -13.2 8.2
22:00 1020 30.12 849 25.07 -10.5 13.2 81 -13 8.5
22:05 1020 30.12 849 25.07 -10.4 13.2 82 -12.9 8.7
22:10 1020 30.12 849 25.07 -10.3 13.4 82 -12.8 8.9
22:15 1020 30.12 849 25.07 -10.2 13.7 82 -12.7 9.1
22:20 1020 30.12 849 25.07 -10.1 13.8 82 -12.7 9.2
22:25 1020 30.12 850 25.1 -10.1 13.9 81 -12.7 9.2
22:30 1020 30.12 850 25.1 -10.1 13.9 81 -12.7 9.1
22:35 1020 30.12 850 25.1 -10 13.9 81 -12.7 9.2
22:40 1020 30.12 850 25.1 -9.8 14.4 81 -12.5 9.5
22:45 1020 30.12 849 25.07 -9.6 14.8 80 -12.3 9.8
22:50 1020 30.12 849 25.07 -9.5 15 80 -12.3 9.9
22:55 1020 30.12 849 25.07 -9.4 15.1 80 -12.2 10
23:00 1020 30.12 849 25.07 -9.3 15.2 80 -12.2 10
23:05 1020 30.12 849 25.07 -9.3 15.3 78 -12.4 9.7
23:10 1020 30.12 849 25.07 -9.3 15.2 76 -12.8 8.9
23:15 1020 30.12 849 25.07 -9.4 15.1 77 -12.8 9
23:20 1020 30.12 849 25.07 -9.4 15.1 77 -12.7 9.2
23:25 1020 30.12 849 25.07 -9.2 15.4 77 -12.6 9.3
23:30 1020 30.12 849 25.07 -9.1 15.7 76 -12.5 9.5
23:35 1020 30.12 849 25.07 -9 15.9 75 -12.6 9.3
23:40 1020 30.12 850 25.1 -8.8 16.1 73 -12.8 9
23:45 1020 30.12 850 25.1 -8.7 16.3 73 -12.7 9.1
23:50 1020 30.12 850 25.1 -8.6 16.4 73 -12.6 9.3
23:55 1021 30.15 850 25.1 -8.5 16.6 72 -12.7 9.1
24:00 1021 30.15 850 25.1 -8.6 16.6 71 -12.9 8.8